createdAt,value
2023-04-10T00:00:57.656Z,6.20
2023-04-10T00:03:25.419Z,6.20
2023-04-10T00:05:54.780Z,6.20
2023-04-10T00:08:23.871Z,6.10
2023-04-10T00:10:51.017Z,6.10
2023-04-10T00:13:17.771Z,6.10
2023-04-10T00:15:44.848Z,6.00
2023-04-10T00:18:12.289Z,6.00
2023-04-10T00:20:38.968Z,6.00
2023-04-10T00:23:06.495Z,6.00
2023-04-10T00:25:33.201Z,6.00
2023-04-10T00:27:59.872Z,6.00
2023-04-10T00:30:26.682Z,6.00
2023-04-10T00:32:53.388Z,6.00
2023-04-10T00:35:20.385Z,6.00
2023-04-10T00:37:47.075Z,6.00
2023-04-10T00:40:13.879Z,6.00
2023-04-10T00:42:40.612Z,6.00
2023-04-10T00:45:07.815Z,6.00
2023-04-10T00:47:36.698Z,5.90
2023-04-10T00:50:04.360Z,5.90
2023-04-10T00:52:32.791Z,5.80
2023-04-10T00:54:59.578Z,5.80
2023-04-10T00:57:27.151Z,5.80
2023-04-10T00:59:54.124Z,5.80
2023-04-10T01:02:21.319Z,5.70
2023-04-10T01:04:48.491Z,5.70
2023-04-10T01:07:15.585Z,5.70
2023-04-10T01:09:52.984Z,5.60
2023-04-10T01:12:44.968Z,5.50
2023-04-10T01:15:37.572Z,5.40
2023-04-10T01:18:28.904Z,5.40
2023-04-10T01:20:56.648Z,5.30
2023-04-10T01:23:58.018Z,5.30
2023-04-10T01:26:50.498Z,5.30
2023-04-10T01:29:23.144Z,5.20
2023-04-10T01:31:55.288Z,5.20
2023-04-10T01:34:45.502Z,5.20
2023-04-10T01:37:33.501Z,5.20
2023-04-10T01:40:08.712Z,5.10
2023-04-10T01:42:42.356Z,5.10
2023-04-10T01:45:16.161Z,5.00
2023-04-10T01:47:43.848Z,5.00
2023-04-10T01:50:12.151Z,5.00
2023-04-10T01:52:40.692Z,4.90
2023-04-10T01:55:09.101Z,4.90
2023-04-10T01:57:38.543Z,4.90
2023-04-10T02:00:05.872Z,4.90
2023-04-10T02:02:33.885Z,4.90
2023-04-10T02:05:01.058Z,4.90
2023-04-10T02:07:36.708Z,4.90
2023-04-10T02:10:22.347Z,4.90
2023-04-10T02:13:10.227Z,4.90
2023-04-10T02:15:41.295Z,4.90
2023-04-10T02:18:10.198Z,4.80
2023-04-10T02:20:37.694Z,4.80
2023-04-10T02:23:05.558Z,4.80
2023-04-10T02:25:35.919Z,4.80
2023-04-10T02:28:06.681Z,4.70
2023-04-10T02:30:33.842Z,4.70
2023-04-10T02:33:01.127Z,4.70
2023-04-10T02:35:29.274Z,4.70
2023-04-10T02:37:56.241Z,4.70
2023-04-10T02:40:23.323Z,4.60
2023-04-10T02:42:50.078Z,4.60
2023-04-10T02:45:16.872Z,4.50
2023-04-10T02:47:43.779Z,4.50
2023-04-10T02:50:11.508Z,4.50
2023-04-10T02:52:38.240Z,4.50
2023-04-10T02:55:05.744Z,4.50
2023-04-10T02:57:32.531Z,4.50
2023-04-10T02:59:59.289Z,4.60
2023-04-10T03:02:26.606Z,4.60
2023-04-10T03:04:53.658Z,4.60
2023-04-10T03:07:20.617Z,4.60
2023-04-10T03:09:47.341Z,4.50
2023-04-10T03:12:14.002Z,4.50
2023-04-10T03:14:41.513Z,4.40
2023-04-10T03:17:08.224Z,4.40
2023-04-10T03:19:35.134Z,4.40
2023-04-10T03:22:02.414Z,4.30
2023-04-10T03:24:29.179Z,4.30
2023-04-10T03:26:57.209Z,4.20
2023-04-10T03:29:24.073Z,4.10
2023-04-10T03:31:51.028Z,4.10
2023-04-10T03:34:18.451Z,4.00
2023-04-10T03:36:45.141Z,3.90
2023-04-10T03:39:12.008Z,3.90
2023-04-10T03:41:38.676Z,3.70
2023-04-10T03:44:05.571Z,3.70
2023-04-10T03:46:32.251Z,3.80
2023-04-10T03:48:59.006Z,3.90
2023-04-10T03:51:26.789Z,4.00
2023-04-10T03:53:53.846Z,4.00
2023-04-10T03:56:20.750Z,4.00
2023-04-10T03:58:47.494Z,4.00
2023-04-10T04:01:14.380Z,4.00
2023-04-10T04:03:41.238Z,4.00
2023-04-10T04:06:08.035Z,4.00
2023-04-10T04:08:36.370Z,4.00
2023-04-10T04:11:03.153Z,3.90
2023-04-10T04:13:29.850Z,3.90
2023-04-10T04:15:56.555Z,3.90
2023-04-10T04:18:23.275Z,3.80
2023-04-10T04:20:49.967Z,3.70
2023-04-10T04:23:17.848Z,3.40
2023-04-10T04:25:44.673Z,3.20
2023-04-10T04:28:13.677Z,3.20
2023-04-10T04:30:40.420Z,3.30
2023-04-10T04:33:07.178Z,3.40
2023-04-10T04:35:34.099Z,3.40
2023-04-10T04:38:00.947Z,3.50
2023-04-10T04:40:27.889Z,3.50
2023-04-10T04:42:54.643Z,3.60
2023-04-10T04:45:21.910Z,3.60
2023-04-10T04:47:48.717Z,3.60
2023-04-10T04:50:15.498Z,3.50
2023-04-10T04:52:43.451Z,3.50
2023-04-10T04:55:10.522Z,3.50
2023-04-10T04:57:37.268Z,3.60
2023-04-10T05:00:04.350Z,3.60
2023-04-10T05:02:31.181Z,3.60
2023-04-10T05:04:58.101Z,3.60
2023-04-10T05:07:24.844Z,3.60
2023-04-10T05:09:51.877Z,3.60
2023-04-10T05:12:18.670Z,3.60
2023-04-10T05:14:46.156Z,3.60
2023-04-10T05:17:12.875Z,3.70
2023-04-10T05:19:39.585Z,3.80
2023-04-10T05:22:06.271Z,3.80
2023-04-10T05:24:33.184Z,3.90
2023-04-10T05:27:00.837Z,3.90
2023-04-10T05:29:27.648Z,4.00
2023-04-10T05:31:54.396Z,4.00
2023-04-10T05:34:21.116Z,4.10
2023-04-10T05:36:47.824Z,4.10
2023-04-10T05:39:15.847Z,4.30
2023-04-10T05:41:42.690Z,4.30
2023-04-10T05:44:09.590Z,4.40
2023-04-10T05:46:36.332Z,4.40
2023-04-10T05:49:03.046Z,4.50
2023-04-10T05:51:29.780Z,4.60
2023-04-10T05:53:56.536Z,4.60
2023-04-10T05:56:23.230Z,4.70
2023-04-10T05:58:49.944Z,4.80
2023-04-10T06:01:16.639Z,4.90
2023-04-10T06:03:43.716Z,4.90
2023-04-10T06:06:11.079Z,5.00
2023-04-10T06:08:37.808Z,5.10
2023-04-10T06:11:04.710Z,5.20
2023-04-10T06:13:32.351Z,5.40
2023-04-10T06:15:59.013Z,5.50
2023-04-10T06:18:25.909Z,5.60
2023-04-10T06:20:52.529Z,5.70
2023-04-10T06:23:19.198Z,5.80
2023-04-10T06:25:45.941Z,5.80
2023-04-10T06:28:12.672Z,6.00
2023-04-10T06:30:39.372Z,6.10
2023-04-10T06:33:06.367Z,6.20
2023-04-10T06:35:33.869Z,6.30
2023-04-10T06:38:00.738Z,6.50
2023-04-10T06:40:29.422Z,6.70
2023-04-10T06:42:56.412Z,6.80
2023-04-10T06:45:23.098Z,7.00
2023-04-10T06:47:49.895Z,7.10
2023-04-10T06:50:16.577Z,7.20
2023-04-10T06:52:47.950Z,7.40
2023-04-10T06:55:14.769Z,7.50
2023-04-10T06:57:42.039Z,7.60
2023-04-10T07:00:09.566Z,7.70
2023-04-10T07:02:36.374Z,7.80
2023-04-10T07:05:03.130Z,7.90
2023-04-10T07:07:29.798Z,8.00
2023-04-10T07:09:57.904Z,8.10
2023-04-10T07:12:24.643Z,8.20
2023-04-10T07:14:51.302Z,8.30
2023-04-10T07:17:17.953Z,8.30
2023-04-10T07:19:44.994Z,8.30
2023-04-10T07:22:11.726Z,8.40
2023-04-10T07:24:38.464Z,8.30
2023-04-10T07:27:05.130Z,8.40
2023-04-10T07:29:31.845Z,8.40
2023-04-10T07:31:59.143Z,8.40
2023-04-10T07:34:26.005Z,8.50
2023-04-10T07:36:52.753Z,8.50
2023-04-10T07:39:19.594Z,8.60
2023-04-10T07:41:46.329Z,8.70
2023-04-10T07:44:13.286Z,8.70
2023-04-10T07:46:40.362Z,8.80
2023-04-10T07:49:08.730Z,8.80
2023-04-10T07:51:36.131Z,8.80
2023-04-10T07:54:04.302Z,8.90
2023-04-10T07:56:33.762Z,8.90
2023-04-10T07:59:03.126Z,8.90
2023-04-10T08:01:29.858Z,9.00
2023-04-10T08:03:56.768Z,9.10
2023-04-10T08:06:23.810Z,9.20
2023-04-10T08:08:52.381Z,9.20
2023-04-10T08:11:24.834Z,9.40
2023-04-10T08:13:52.914Z,9.50
2023-04-10T08:16:23.531Z,9.70
2023-04-10T08:18:50.377Z,9.80
2023-04-10T08:21:17.061Z,9.80
2023-04-10T08:23:43.815Z,10.00
2023-04-10T08:26:10.744Z,10.00
2023-04-10T08:28:37.823Z,10.00
2023-04-10T08:31:04.865Z,10.20
2023-04-10T08:33:31.823Z,10.20
2023-04-10T08:35:58.538Z,10.30
2023-04-10T08:38:27.592Z,10.50
2023-04-10T08:40:54.908Z,10.50
2023-04-10T08:43:21.708Z,10.60
2023-04-10T08:45:49.068Z,10.60
2023-04-10T08:48:18.548Z,10.80
2023-04-10T08:50:46.349Z,11.20
2023-04-10T08:53:15.035Z,11.10
2023-04-10T08:55:42.238Z,11.20
2023-04-10T08:58:10.450Z,11.40
2023-04-10T09:00:40.564Z,11.60
2023-04-10T09:03:15.098Z,11.80
2023-04-10T09:05:41.970Z,11.90
2023-04-10T09:08:09.640Z,12.10
2023-04-10T09:10:36.389Z,12.20
2023-04-10T09:13:03.187Z,12.40
2023-04-10T09:15:29.858Z,12.50
2023-04-10T09:18:00.766Z,12.70
2023-04-10T09:20:30.288Z,12.80
2023-04-10T09:22:57.351Z,12.90
2023-04-10T09:25:39.110Z,13.00
2023-04-10T09:28:07.975Z,13.10
2023-04-10T09:30:39.968Z,13.20
2023-04-10T09:33:21.960Z,13.30
2023-04-10T09:35:49.321Z,13.30
2023-04-10T09:38:22.620Z,13.30
2023-04-10T09:40:49.357Z,13.40
2023-04-10T09:43:24.433Z,13.40
2023-04-10T09:45:53.424Z,13.40
2023-04-10T09:48:20.963Z,13.40
2023-04-10T09:50:48.094Z,13.40
2023-04-10T09:53:17.020Z,13.60
2023-04-10T09:55:44.178Z,13.70
2023-04-10T09:58:11.529Z,13.80
2023-04-10T10:00:40.043Z,13.80
2023-04-10T10:03:10.504Z,13.90
2023-04-10T10:05:46.221Z,14.00
2023-04-10T10:08:14.422Z,14.10
2023-04-10T10:10:47.428Z,14.20
2023-04-10T10:13:27.971Z,14.40
2023-04-10T10:16:06.786Z,14.30
2023-04-10T10:18:45.834Z,14.20
2023-04-10T10:21:14.020Z,14.00
2023-04-10T10:23:44.203Z,14.10
2023-04-10T10:26:11.485Z,14.40
2023-04-10T10:28:40.380Z,14.60
2023-04-10T10:31:07.297Z,14.80
2023-04-10T10:33:37.024Z,15.40
2023-04-10T10:36:04.746Z,15.00
2023-04-10T10:38:32.084Z,15.20
2023-04-10T10:41:10.652Z,15.30
2023-04-10T10:43:56.301Z,15.50
2023-04-10T10:46:37.971Z,15.50
2023-04-10T10:49:04.657Z,15.40
2023-04-10T10:51:43.013Z,15.40
2023-04-10T10:54:29.240Z,15.50
2023-04-10T10:56:56.032Z,15.70
2023-04-10T10:59:47.782Z,15.40
2023-04-10T11:02:17.309Z,15.70
2023-04-10T11:04:45.816Z,15.80
2023-04-10T11:07:13.385Z,15.90
2023-04-10T11:09:51.198Z,16.00
2023-04-10T11:12:21.528Z,16.00
2023-04-10T11:14:59.972Z,16.20
2023-04-10T11:17:52.727Z,16.30
2023-04-10T11:20:27.321Z,16.20
2023-04-10T11:23:07.291Z,16.10
2023-04-10T11:25:46.738Z,15.90
2023-04-10T11:28:32.409Z,15.90
2023-04-10T11:31:22.821Z,15.70
2023-04-10T11:34:00.484Z,16.10
2023-04-10T11:36:27.595Z,16.40
2023-04-10T11:39:00.554Z,16.70
2023-04-10T11:41:36.647Z,17.10
2023-04-10T11:44:08.497Z,17.40
2023-04-10T11:46:40.467Z,17.40
2023-04-10T11:49:09.749Z,17.40
2023-04-10T11:51:40.714Z,17.60
2023-04-10T11:54:12.358Z,17.30
2023-04-10T11:56:41.044Z,17.10
2023-04-10T11:59:11.132Z,17.30
2023-04-10T12:01:39.940Z,17.30
2023-04-10T12:04:17.196Z,17.50
2023-04-10T12:06:51.943Z,17.10
2023-04-10T12:09:19.886Z,16.70
2023-04-10T12:11:59.568Z,16.90
2023-04-10T12:14:31.998Z,17.10
2023-04-10T12:17:00.110Z,17.20
2023-04-10T12:19:27.660Z,17.20
2023-04-10T12:21:56.002Z,17.40
2023-04-10T12:24:46.286Z,17.50
2023-04-10T12:27:27.669Z,17.50
2023-04-10T12:29:57.815Z,17.30
2023-04-10T12:32:25.853Z,17.30
2023-04-10T12:34:54.039Z,17.20
2023-04-10T12:37:21.212Z,16.90
2023-04-10T12:39:48.125Z,16.90
2023-04-10T12:42:21.221Z,16.90
2023-04-10T12:44:59.398Z,16.90
2023-04-10T12:47:28.187Z,17.50
2023-04-10T12:50:10.906Z,18.10
2023-04-10T12:52:40.314Z,18.30
2023-04-10T12:55:13.143Z,18.30
2023-04-10T12:57:41.555Z,18.40
2023-04-10T13:00:11.229Z,18.60
2023-04-10T13:02:39.172Z,18.50
2023-04-10T13:05:07.092Z,18.70
2023-04-10T13:07:33.919Z,18.80
2023-04-10T13:10:00.883Z,18.90
2023-04-10T13:12:28.930Z,18.70
2023-04-10T13:14:56.205Z,18.90
2023-04-10T13:17:26.276Z,18.90
2023-04-10T13:19:53.643Z,18.80
2023-04-10T13:22:20.883Z,18.90
2023-04-10T13:24:47.630Z,18.30
2023-04-10T13:27:14.428Z,18.30
2023-04-10T13:29:42.893Z,18.40
2023-04-10T13:32:10.151Z,19.00
2023-04-10T13:34:36.884Z,19.80
2023-04-10T13:37:03.826Z,20.10
2023-04-10T13:39:31.508Z,20.20
2023-04-10T13:41:59.456Z,20.70
2023-04-10T13:44:26.457Z,21.30
2023-04-10T13:46:53.892Z,21.60
2023-04-10T13:49:22.256Z,21.70
2023-04-10T13:51:49.349Z,22.10
2023-04-10T13:54:20.086Z,22.20
2023-04-10T13:56:47.107Z,22.70
2023-04-10T13:59:14.010Z,23.40
2023-04-10T14:01:40.958Z,23.70
2023-04-10T14:04:08.040Z,24.00
2023-04-10T14:06:35.276Z,24.20
2023-04-10T14:09:02.188Z,24.30
2023-04-10T14:11:28.893Z,24.20
2023-04-10T14:13:55.714Z,24.10
2023-04-10T14:16:22.435Z,23.60
2023-04-10T14:18:49.324Z,22.70
2023-04-10T14:21:16.366Z,22.50
2023-04-10T14:23:43.624Z,21.80
2023-04-10T14:26:10.298Z,21.30
2023-04-10T14:28:37.009Z,20.70
2023-04-10T14:31:05.030Z,20.80
2023-04-10T14:33:31.822Z,20.50
2023-04-10T14:35:58.683Z,20.10
2023-04-10T14:38:25.347Z,19.70
2023-04-10T14:40:52.226Z,19.50
2023-04-10T14:43:19.618Z,19.10
2023-04-10T14:45:46.512Z,19.10
2023-04-10T14:48:13.585Z,18.90
2023-04-10T14:50:40.652Z,18.80
2023-04-10T14:53:09.733Z,18.10
2023-04-10T14:55:37.492Z,18.00
2023-04-10T14:58:04.414Z,18.10
2023-04-10T15:00:32.222Z,18.20
2023-04-10T15:02:59.285Z,18.50
2023-04-10T15:05:27.153Z,18.30
2023-04-10T15:07:54.899Z,18.20
2023-04-10T15:10:21.799Z,17.60
2023-04-10T15:12:48.553Z,17.90
2023-04-10T15:15:15.424Z,17.80
2023-04-10T15:17:42.151Z,17.90
2023-04-10T15:20:09.400Z,18.00
2023-04-10T15:22:36.052Z,18.00
2023-04-10T15:25:02.943Z,17.90
2023-04-10T15:27:29.721Z,18.00
2023-04-10T15:29:56.604Z,17.60
2023-04-10T15:32:23.430Z,17.40
2023-04-10T15:34:50.256Z,17.50
2023-04-10T15:37:17.002Z,17.50
2023-04-10T15:39:43.699Z,17.60
2023-04-10T15:42:10.523Z,17.40
2023-04-10T15:44:37.345Z,17.00
2023-04-10T15:47:04.103Z,16.60
2023-04-10T15:49:37.925Z,16.40
2023-04-10T15:52:06.663Z,17.40
2023-04-10T15:54:34.286Z,16.40
2023-04-10T15:57:02.314Z,16.50
2023-04-10T15:59:29.459Z,17.00
2023-04-10T16:01:56.528Z,16.50
2023-04-10T16:04:23.755Z,17.10
2023-04-10T16:06:50.759Z,16.50
2023-04-10T16:11:47.822Z,16.20
2023-04-10T16:14:14.567Z,16.10
2023-04-10T16:16:41.306Z,16.20
2023-04-10T16:19:08.048Z,16.10
2023-04-10T16:21:34.697Z,16.10
2023-04-10T16:24:01.437Z,16.20
2023-04-10T16:26:28.510Z,16.00
2023-04-10T16:28:55.440Z,15.90
2023-04-10T16:31:22.514Z,16.30
2023-04-10T16:33:49.241Z,15.90
2023-04-10T16:36:16.001Z,16.30
2023-04-10T16:38:43.628Z,16.30
2023-04-10T16:41:12.420Z,15.80
2023-04-10T16:43:39.295Z,16.00
2023-04-10T16:46:06.101Z,15.60
2023-04-10T16:48:34.977Z,15.50
2023-04-10T16:51:06.192Z,15.80
2023-04-10T16:53:33.716Z,15.90
2023-04-10T16:56:02.913Z,15.30
2023-04-10T16:58:31.478Z,15.20
2023-04-10T17:00:58.971Z,15.30
2023-04-10T17:03:25.756Z,15.20
2023-04-10T17:05:52.441Z,15.00
2023-04-10T17:08:19.188Z,15.20
2023-04-10T17:10:45.971Z,14.80
2023-04-10T17:13:12.770Z,14.70
2023-04-10T17:15:39.439Z,15.00
2023-04-10T17:18:06.237Z,14.70
2023-04-10T17:20:36.754Z,14.60
2023-04-10T17:23:03.629Z,14.50
2023-04-10T17:25:30.458Z,14.40
2023-04-10T17:27:57.838Z,14.20
2023-04-10T17:30:24.607Z,14.20
2023-04-10T17:32:51.398Z,14.50
2023-04-10T17:35:18.218Z,14.10
2023-04-10T17:37:44.878Z,14.20
2023-04-10T17:40:12.137Z,14.00
2023-04-10T17:42:38.870Z,13.90
2023-04-10T17:45:06.250Z,13.80
2023-04-10T17:47:33.023Z,13.80
2023-04-10T17:49:59.739Z,13.80
2023-04-10T17:52:26.498Z,13.70
2023-04-10T17:54:53.238Z,13.80
2023-04-10T17:57:20.077Z,13.70
2023-04-10T17:59:46.818Z,13.70
2023-04-10T18:02:13.526Z,13.80
2023-04-10T18:04:40.309Z,13.50
2023-04-10T18:07:07.086Z,13.50
2023-04-10T18:09:33.821Z,13.40
2023-04-10T18:12:01.372Z,13.40
2023-04-10T18:14:28.283Z,13.90
2023-04-10T18:16:55.165Z,13.20
2023-04-10T18:19:21.918Z,13.20
2023-04-10T18:21:49.319Z,13.00
2023-04-10T18:24:16.120Z,13.00
2023-04-10T18:26:45.142Z,12.90
2023-04-10T18:29:11.888Z,12.90
2023-04-10T18:31:38.626Z,12.80
2023-04-10T18:34:08.419Z,12.70
2023-04-10T18:36:35.659Z,12.60
2023-04-10T18:39:02.376Z,12.50
2023-04-10T18:41:29.055Z,12.50
2023-04-10T18:44:04.147Z,12.40
2023-04-10T18:46:32.614Z,12.30
2023-04-10T18:49:00.950Z,12.20
2023-04-10T18:51:28.510Z,12.20
2023-04-10T18:53:55.582Z,12.10
2023-04-10T18:56:22.641Z,12.10
2023-04-10T18:58:50.319Z,12.00
2023-04-10T19:01:20.600Z,11.90
2023-04-10T19:03:49.957Z,11.90
2023-04-10T19:06:23.774Z,11.80
2023-04-10T19:08:51.135Z,11.80
2023-04-10T19:11:18.615Z,11.80
2023-04-10T19:13:45.506Z,11.80
2023-04-10T19:16:19.232Z,11.70
2023-04-10T19:18:49.419Z,11.70
2023-04-10T19:21:16.154Z,11.90
2023-04-10T19:23:42.922Z,11.60
2023-04-10T19:26:09.795Z,11.70
2023-04-10T19:28:36.624Z,11.60
2023-04-10T19:31:03.784Z,11.90
2023-04-10T19:33:30.674Z,11.40
2023-04-10T19:35:58.295Z,11.40
2023-04-10T19:38:27.632Z,11.40
2023-04-10T19:40:54.752Z,11.30
2023-04-10T19:43:21.549Z,11.30
2023-04-10T19:45:48.347Z,11.30
2023-04-10T19:48:16.277Z,11.30
2023-04-10T19:50:42.992Z,11.30
2023-04-10T19:53:12.864Z,11.20
2023-04-10T19:55:42.817Z,11.20
2023-04-10T19:58:13.408Z,11.20
2023-04-10T20:00:47.774Z,11.20
2023-04-10T20:03:16.117Z,11.20
2023-04-10T20:05:43.002Z,11.20
2023-04-10T20:08:09.751Z,11.20
2023-04-10T20:10:36.449Z,11.20
2023-04-10T20:13:03.102Z,11.10
2023-04-10T20:15:29.822Z,11.20
2023-04-10T20:17:56.546Z,11.10
2023-04-10T20:20:23.228Z,11.10
2023-04-10T20:22:50.033Z,10.90
2023-04-10T20:25:16.971Z,10.80
2023-04-10T20:27:43.621Z,10.90
2023-04-10T20:30:10.854Z,11.00
2023-04-10T20:32:37.627Z,11.20
2023-04-10T20:35:05.029Z,11.30
2023-04-10T20:37:31.712Z,11.30
2023-04-10T20:39:58.538Z,11.40
2023-04-10T20:42:25.255Z,11.40
2023-04-10T20:44:51.929Z,11.70
2023-04-10T20:47:18.619Z,11.50
2023-04-10T20:49:45.297Z,11.50
2023-04-10T20:52:12.017Z,11.50
2023-04-10T20:54:38.808Z,11.50
2023-04-10T20:57:06.139Z,11.40
2023-04-10T20:59:33.383Z,11.30
2023-04-10T21:02:00.151Z,11.30
2023-04-10T21:04:27.229Z,11.40
2023-04-10T21:06:54.013Z,11.50
2023-04-10T21:09:20.926Z,11.50
2023-04-10T21:11:47.613Z,11.50
2023-04-10T21:14:14.320Z,11.50
2023-04-10T21:16:45.760Z,11.60
2023-04-10T21:19:12.696Z,11.60
2023-04-10T21:21:39.430Z,11.60
2023-04-10T21:24:06.298Z,11.60
2023-04-10T21:26:33.002Z,11.50
2023-04-10T21:28:59.701Z,11.60
2023-04-10T21:31:26.365Z,11.60
2023-04-10T21:33:53.189Z,11.60
2023-04-10T21:36:19.846Z,11.70
2023-04-10T21:38:46.596Z,11.70
2023-04-10T21:41:13.354Z,11.70
2023-04-10T21:43:40.156Z,11.70
2023-04-10T21:46:07.604Z,11.70
2023-04-10T21:48:34.463Z,11.70
2023-04-10T21:51:02.425Z,11.80
2023-04-10T21:53:29.186Z,11.70
2023-04-10T21:55:56.085Z,11.70
2023-04-10T21:58:22.889Z,11.70
2023-04-10T22:00:51.561Z,11.70
2023-04-10T22:03:20.545Z,11.60
2023-04-10T22:05:48.806Z,11.60
2023-04-10T22:08:16.031Z,11.90
2023-04-10T22:10:45.448Z,11.70
2023-04-10T22:13:19.743Z,11.60
2023-04-10T22:15:54.644Z,11.60
2023-04-10T22:18:21.392Z,11.60
2023-04-10T22:20:48.076Z,11.70
2023-04-10T22:23:14.854Z,11.50
2023-04-10T22:25:41.551Z,11.40
2023-04-10T22:28:08.237Z,11.50
2023-04-10T22:30:35.597Z,11.40
2023-04-10T22:33:02.556Z,11.30
2023-04-10T22:35:29.713Z,11.30
2023-04-10T22:37:57.004Z,11.40
2023-04-10T22:40:23.752Z,11.30
2023-04-10T22:42:50.855Z,11.30
2023-04-10T22:45:17.589Z,11.30
2023-04-10T22:47:44.335Z,11.40
2023-04-10T22:50:11.316Z,11.30
2023-04-10T22:52:38.476Z,11.30
2023-04-10T22:55:08.504Z,11.30
2023-04-10T22:57:35.525Z,11.40
2023-04-10T23:00:02.264Z,11.30
2023-04-10T23:02:31.495Z,11.20
2023-04-10T23:04:58.405Z,11.20
2023-04-10T23:07:26.029Z,11.20
2023-04-10T23:09:52.747Z,11.30
2023-04-10T23:12:19.430Z,11.30
2023-04-10T23:14:46.175Z,11.20
2023-04-10T23:17:12.902Z,11.20
2023-04-10T23:19:39.691Z,11.30
2023-04-10T23:22:06.414Z,11.30
2023-04-10T23:24:33.103Z,11.20
2023-04-10T23:26:59.817Z,11.20
2023-04-10T23:29:26.478Z,11.10
2023-04-10T23:31:53.192Z,11.10
2023-04-10T23:34:21.125Z,11.10
2023-04-10T23:36:47.948Z,11.10
2023-04-10T23:39:14.683Z,11.20
2023-04-10T23:41:41.354Z,11.10
2023-04-10T23:44:08.070Z,11.00
2023-04-10T23:46:34.878Z,10.90
2023-04-10T23:49:01.587Z,11.10
2023-04-10T23:51:28.441Z,11.10
2023-04-10T23:53:55.165Z,11.00
2023-04-10T23:56:28.009Z,11.10
2023-04-10T23:58:56.291Z,11.10
